sensor_id;sensor_type;location;lat;lon;timestamp;P1;durP1;ratioP1;P2;durP2;ratioP2
51949;SDS011;37974;53.218;6.640;2023-04-08T00:01:05;13.55;;;10.25;;
51949;SDS011;37974;53.218;6.640;2023-04-08T00:03:31;13.18;;;9.85;;
51949;SDS011;37974;53.218;6.640;2023-04-08T00:05:57;18.40;;;10.70;;
51949;SDS011;37974;53.218;6.640;2023-04-08T00:08:24;15.60;;;10.75;;
51949;SDS011;37974;53.218;6.640;2023-04-08T00:10:50;15.30;;;10.25;;
51949;SDS011;37974;53.218;6.640;2023-04-08T00:13:16;15.25;;;10.75;;
51949;SDS011;37974;53.218;6.640;2023-04-08T00:15:41;14.80;;;10.45;;
51949;SDS011;37974;53.218;6.640;2023-04-08T00:18:07;15.75;;;11.27;;
51949;SDS011;37974;53.218;6.640;2023-04-08T00:20:33;15.48;;;11.82;;
51949;SDS011;37974;53.218;6.640;2023-04-08T00:22:59;15.88;;;11.25;;
51949;SDS011;37974;53.218;6.640;2023-04-08T00:25:25;16.23;;;12.13;;
51949;SDS011;37974;53.218;6.640;2023-04-08T00:27:50;18.27;;;11.98;;
51949;SDS011;37974;53.218;6.640;2023-04-08T00:30:16;16.42;;;11.98;;
51949;SDS011;37974;53.218;6.640;2023-04-08T00:32:42;16.73;;;11.35;;
51949;SDS011;37974;53.218;6.640;2023-04-08T00:35:08;17.98;;;12.82;;
51949;SDS011;37974;53.218;6.640;2023-04-08T00:37:34;16.50;;;12.27;;
51949;SDS011;37974;53.218;6.640;2023-04-08T00:40:00;15.88;;;11.95;;
51949;SDS011;37974;53.218;6.640;2023-04-08T00:42:26;16.15;;;12.20;;
51949;SDS011;37974;53.218;6.640;2023-04-08T00:44:51;18.98;;;11.95;;
51949;SDS011;37974;53.218;6.640;2023-04-08T00:47:17;17.23;;;11.80;;
51949;SDS011;37974;53.218;6.640;2023-04-08T00:49:43;18.95;;;12.63;;
51949;SDS011;37974;53.218;6.640;2023-04-08T00:52:09;17.50;;;13.43;;
51949;SDS011;37974;53.218;6.640;2023-04-08T00:54:35;16.88;;;12.68;;
51949;SDS011;37974;53.218;6.640;2023-04-08T00:57:02;19.85;;;14.18;;
51949;SDS011;37974;53.218;6.640;2023-04-08T00:59:29;18.90;;;13.38;;
51949;SDS011;37974;53.218;6.640;2023-04-08T01:01:58;18.17;;;14.18;;
51949;SDS011;37974;53.218;6.640;2023-04-08T01:04:48;17.33;;;12.88;;
51949;SDS011;37974;53.218;6.640;2023-04-08T01:09:53;18.70;;;13.65;;
51949;SDS011;37974;53.218;6.640;2023-04-08T01:12:21;18.73;;;13.82;;
51949;SDS011;37974;53.218;6.640;2023-04-08T01:14:54;20.08;;;14.57;;
51949;SDS011;37974;53.218;6.640;2023-04-08T01:17:27;20.33;;;15.63;;
51949;SDS011;37974;53.218;6.640;2023-04-08T01:19:55;20.52;;;14.95;;
51949;SDS011;37974;53.218;6.640;2023-04-08T01:22:36;21.63;;;15.82;;
51949;SDS011;37974;53.218;6.640;2023-04-08T01:25:14;22.90;;;15.57;;
51949;SDS011;37974;53.218;6.640;2023-04-08T01:27:42;21.77;;;16.05;;
51949;SDS011;37974;53.218;6.640;2023-04-08T01:30:09;21.42;;;16.25;;
51949;SDS011;37974;53.218;6.640;2023-04-08T01:32:36;23.45;;;16.42;;
51949;SDS011;37974;53.218;6.640;2023-04-08T01:35:04;24.45;;;16.67;;
51949;SDS011;37974;53.218;6.640;2023-04-08T01:37:31;24.50;;;17.02;;
51949;SDS011;37974;53.218;6.640;2023-04-08T01:39:57;25.13;;;16.75;;
51949;SDS011;37974;53.218;6.640;2023-04-08T01:42:26;21.60;;;16.95;;
51949;SDS011;37974;53.218;6.640;2023-04-08T01:44:54;27.48;;;17.45;;
51949;SDS011;37974;53.218;6.640;2023-04-08T01:47:22;21.75;;;17.23;;
51949;SDS011;37974;53.218;6.640;2023-04-08T01:49:50;24.85;;;18.27;;
51949;SDS011;37974;53.218;6.640;2023-04-08T01:52:17;27.33;;;19.27;;
51949;SDS011;37974;53.218;6.640;2023-04-08T01:54:45;24.45;;;18.35;;
51949;SDS011;37974;53.218;6.640;2023-04-08T01:57:13;25.65;;;19.27;;
51949;SDS011;37974;53.218;6.640;2023-04-08T01:59:47;29.50;;;18.85;;
51949;SDS011;37974;53.218;6.640;2023-04-08T02:02:16;23.98;;;18.02;;
51949;SDS011;37974;53.218;6.640;2023-04-08T02:04:45;25.48;;;19.40;;
51949;SDS011;37974;53.218;6.640;2023-04-08T02:07:11;27.38;;;19.52;;
51949;SDS011;37974;53.218;6.640;2023-04-08T02:09:36;27.88;;;20.92;;
51949;SDS011;37974;53.218;6.640;2023-04-08T02:12:02;23.88;;;18.60;;
51949;SDS011;37974;53.218;6.640;2023-04-08T02:14:28;29.92;;;20.85;;
51949;SDS011;37974;53.218;6.640;2023-04-08T02:16:59;28.92;;;20.42;;
51949;SDS011;37974;53.218;6.640;2023-04-08T02:19:35;31.65;;;21.33;;
51949;SDS011;37974;53.218;6.640;2023-04-08T02:22:16;27.95;;;20.23;;
51949;SDS011;37974;53.218;6.640;2023-04-08T02:24:49;27.10;;;19.67;;
51949;SDS011;37974;53.218;6.640;2023-04-08T02:27:16;27.13;;;20.40;;
51949;SDS011;37974;53.218;6.640;2023-04-08T02:29:42;26.67;;;19.77;;
51949;SDS011;37974;53.218;6.640;2023-04-08T02:32:10;28.60;;;20.42;;
51949;SDS011;37974;53.218;6.640;2023-04-08T02:34:38;27.35;;;20.17;;
51949;SDS011;37974;53.218;6.640;2023-04-08T02:37:06;24.33;;;18.52;;
51949;SDS011;37974;53.218;6.640;2023-04-08T02:39:33;24.20;;;18.05;;
51949;SDS011;37974;53.218;6.640;2023-04-08T02:41:59;26.48;;;19.80;;
51949;SDS011;37974;53.218;6.640;2023-04-08T02:44:25;23.30;;;17.90;;
51949;SDS011;37974;53.218;6.640;2023-04-08T02:46:51;24.88;;;18.25;;
51949;SDS011;37974;53.218;6.640;2023-04-08T02:49:16;25.15;;;19.15;;
51949;SDS011;37974;53.218;6.640;2023-04-08T02:51:42;27.33;;;18.65;;
51949;SDS011;37974;53.218;6.640;2023-04-08T02:54:08;23.98;;;18.80;;
51949;SDS011;37974;53.218;6.640;2023-04-08T02:56:33;24.40;;;18.08;;
51949;SDS011;37974;53.218;6.640;2023-04-08T02:58:59;26.52;;;19.83;;
51949;SDS011;37974;53.218;6.640;2023-04-08T03:01:25;30.60;;;18.92;;
51949;SDS011;37974;53.218;6.640;2023-04-08T03:03:51;29.10;;;20.48;;
51949;SDS011;37974;53.218;6.640;2023-04-08T03:06:16;26.25;;;17.63;;
51949;SDS011;37974;53.218;6.640;2023-04-08T03:08:42;27.55;;;18.02;;
51949;SDS011;37974;53.218;6.640;2023-04-08T03:11:08;23.98;;;17.23;;
51949;SDS011;37974;53.218;6.640;2023-04-08T03:13:34;21.60;;;16.80;;
51949;SDS011;37974;53.218;6.640;2023-04-08T03:16:00;23.45;;;17.75;;
51949;SDS011;37974;53.218;6.640;2023-04-08T03:18:25;28.92;;;20.77;;
51949;SDS011;37974;53.218;6.640;2023-04-08T03:20:51;23.05;;;18.02;;
51949;SDS011;37974;53.218;6.640;2023-04-08T03:23:17;26.02;;;19.40;;
51949;SDS011;37974;53.218;6.640;2023-04-08T03:25:42;24.30;;;19.35;;
51949;SDS011;37974;53.218;6.640;2023-04-08T03:28:08;25.75;;;20.08;;
51949;SDS011;37974;53.218;6.640;2023-04-08T03:30:34;26.98;;;18.92;;
51949;SDS011;37974;53.218;6.640;2023-04-08T03:33:00;26.13;;;19.42;;
51949;SDS011;37974;53.218;6.640;2023-04-08T03:35:27;29.83;;;20.60;;
51949;SDS011;37974;53.218;6.640;2023-04-08T03:37:53;25.95;;;19.88;;
51949;SDS011;37974;53.218;6.640;2023-04-08T03:40:19;27.15;;;20.08;;
51949;SDS011;37974;53.218;6.640;2023-04-08T03:42:45;30.33;;;21.00;;
51949;SDS011;37974;53.218;6.640;2023-04-08T03:45:11;29.88;;;21.45;;
51949;SDS011;37974;53.218;6.640;2023-04-08T03:47:36;26.85;;;20.50;;
51949;SDS011;37974;53.218;6.640;2023-04-08T03:50:02;34.75;;;24.13;;
51949;SDS011;37974;53.218;6.640;2023-04-08T03:52:28;35.42;;;25.00;;
51949;SDS011;37974;53.218;6.640;2023-04-08T03:54:54;32.92;;;23.77;;
51949;SDS011;37974;53.218;6.640;2023-04-08T03:57:19;31.90;;;24.05;;
51949;SDS011;37974;53.218;6.640;2023-04-08T03:59:45;35.05;;;25.23;;
51949;SDS011;37974;53.218;6.640;2023-04-08T04:02:11;36.05;;;25.13;;
51949;SDS011;37974;53.218;6.640;2023-04-08T04:04:36;34.97;;;25.90;;
51949;SDS011;37974;53.218;6.640;2023-04-08T04:07:02;41.03;;;28.45;;
51949;SDS011;37974;53.218;6.640;2023-04-08T04:09:28;32.75;;;24.83;;
51949;SDS011;37974;53.218;6.640;2023-04-08T04:11:53;37.10;;;26.92;;
51949;SDS011;37974;53.218;6.640;2023-04-08T04:14:19;35.90;;;25.52;;
51949;SDS011;37974;53.218;6.640;2023-04-08T04:16:45;39.35;;;26.60;;
51949;SDS011;37974;53.218;6.640;2023-04-08T04:19:11;39.75;;;27.50;;
51949;SDS011;37974;53.218;6.640;2023-04-08T04:21:36;37.00;;;26.00;;
51949;SDS011;37974;53.218;6.640;2023-04-08T04:24:02;35.17;;;25.70;;
51949;SDS011;37974;53.218;6.640;2023-04-08T04:26:28;34.60;;;26.40;;
51949;SDS011;37974;53.218;6.640;2023-04-08T04:28:53;36.92;;;25.42;;
51949;SDS011;37974;53.218;6.640;2023-04-08T04:31:20;33.28;;;23.60;;
51949;SDS011;37974;53.218;6.640;2023-04-08T04:33:47;37.08;;;27.17;;
51949;SDS011;37974;53.218;6.640;2023-04-08T04:36:13;34.15;;;24.58;;
51949;SDS011;37974;53.218;6.640;2023-04-08T04:38:39;42.22;;;28.17;;
51949;SDS011;37974;53.218;6.640;2023-04-08T04:41:05;36.63;;;26.25;;
51949;SDS011;37974;53.218;6.640;2023-04-08T04:43:31;35.88;;;25.40;;
51949;SDS011;37974;53.218;6.640;2023-04-08T04:45:56;42.25;;;27.55;;
51949;SDS011;37974;53.218;6.640;2023-04-08T04:48:22;41.30;;;29.15;;
51949;SDS011;37974;53.218;6.640;2023-04-08T04:50:54;46.20;;;28.52;;
51949;SDS011;37974;53.218;6.640;2023-04-08T04:53:21;46.38;;;28.75;;
51949;SDS011;37974;53.218;6.640;2023-04-08T04:55:46;44.15;;;27.42;;
51949;SDS011;37974;53.218;6.640;2023-04-08T04:58:12;36.28;;;27.02;;
51949;SDS011;37974;53.218;6.640;2023-04-08T05:00:38;35.45;;;26.90;;
51949;SDS011;37974;53.218;6.640;2023-04-08T05:03:03;35.35;;;25.60;;
51949;SDS011;37974;53.218;6.640;2023-04-08T05:05:29;42.70;;;27.70;;
51949;SDS011;37974;53.218;6.640;2023-04-08T05:07:55;39.38;;;27.88;;
51949;SDS011;37974;53.218;6.640;2023-04-08T05:10:21;42.58;;;28.65;;
51949;SDS011;37974;53.218;6.640;2023-04-08T05:12:46;54.00;;;30.67;;
51949;SDS011;37974;53.218;6.640;2023-04-08T05:15:12;43.70;;;27.73;;
51949;SDS011;37974;53.218;6.640;2023-04-08T05:17:38;40.90;;;28.88;;
51949;SDS011;37974;53.218;6.640;2023-04-08T05:20:04;38.15;;;26.92;;
51949;SDS011;37974;53.218;6.640;2023-04-08T05:22:30;41.92;;;27.60;;
51949;SDS011;37974;53.218;6.640;2023-04-08T05:24:56;43.42;;;29.25;;
51949;SDS011;37974;53.218;6.640;2023-04-08T05:27:22;35.72;;;25.73;;
51949;SDS011;37974;53.218;6.640;2023-04-08T05:29:48;43.72;;;29.95;;
51949;SDS011;37974;53.218;6.640;2023-04-08T05:32:13;45.47;;;30.30;;
51949;SDS011;37974;53.218;6.640;2023-04-08T05:34:41;44.70;;;31.40;;
51949;SDS011;37974;53.218;6.640;2023-04-08T05:37:06;47.50;;;31.45;;
51949;SDS011;37974;53.218;6.640;2023-04-08T05:39:32;45.95;;;29.85;;
51949;SDS011;37974;53.218;6.640;2023-04-08T05:41:58;50.83;;;30.90;;
51949;SDS011;37974;53.218;6.640;2023-04-08T05:44:24;54.70;;;32.00;;
51949;SDS011;37974;53.218;6.640;2023-04-08T05:46:49;44.90;;;30.02;;
51949;SDS011;37974;53.218;6.640;2023-04-08T05:49:15;45.88;;;29.20;;
51949;SDS011;37974;53.218;6.640;2023-04-08T05:51:41;43.28;;;30.15;;
51949;SDS011;37974;53.218;6.640;2023-04-08T05:54:07;45.25;;;30.45;;
51949;SDS011;37974;53.218;6.640;2023-04-08T05:56:33;43.72;;;28.52;;
51949;SDS011;37974;53.218;6.640;2023-04-08T05:58:59;42.38;;;28.95;;
51949;SDS011;37974;53.218;6.640;2023-04-08T06:01:25;46.50;;;29.60;;
51949;SDS011;37974;53.218;6.640;2023-04-08T06:03:51;37.50;;;27.42;;
51949;SDS011;37974;53.218;6.640;2023-04-08T06:06:17;79.90;;;58.58;;
51949;SDS011;37974;53.218;6.640;2023-04-08T06:08:43;52.65;;;28.25;;
51949;SDS011;37974;53.218;6.640;2023-04-08T06:11:09;38.08;;;25.33;;
51949;SDS011;37974;53.218;6.640;2023-04-08T06:13:35;35.75;;;24.70;;
51949;SDS011;37974;53.218;6.640;2023-04-08T06:16:10;32.65;;;24.13;;
51949;SDS011;37974;53.218;6.640;2023-04-08T06:18:37;34.00;;;23.60;;
51949;SDS011;37974;53.218;6.640;2023-04-08T06:21:02;35.10;;;23.00;;
51949;SDS011;37974;53.218;6.640;2023-04-08T06:23:28;30.95;;;22.60;;
51949;SDS011;37974;53.218;6.640;2023-04-08T06:25:54;31.92;;;23.02;;
51949;SDS011;37974;53.218;6.640;2023-04-08T06:28:20;30.23;;;22.52;;
51949;SDS011;37974;53.218;6.640;2023-04-08T06:30:45;26.35;;;20.15;;
51949;SDS011;37974;53.218;6.640;2023-04-08T06:33:11;27.35;;;20.10;;
51949;SDS011;37974;53.218;6.640;2023-04-08T06:35:37;26.98;;;20.48;;
51949;SDS011;37974;53.218;6.640;2023-04-08T06:38:03;29.70;;;19.60;;
51949;SDS011;37974;53.218;6.640;2023-04-08T06:40:28;27.02;;;19.60;;
51949;SDS011;37974;53.218;6.640;2023-04-08T06:42:54;26.17;;;19.38;;
51949;SDS011;37974;53.218;6.640;2023-04-08T06:45:20;24.25;;;18.20;;
51949;SDS011;37974;53.218;6.640;2023-04-08T06:47:46;25.23;;;18.42;;
51949;SDS011;37974;53.218;6.640;2023-04-08T06:50:11;21.73;;;17.17;;
51949;SDS011;37974;53.218;6.640;2023-04-08T06:52:37;24.95;;;17.70;;
51949;SDS011;37974;53.218;6.640;2023-04-08T06:55:03;25.10;;;18.65;;
51949;SDS011;37974;53.218;6.640;2023-04-08T06:57:29;24.38;;;17.98;;
51949;SDS011;37974;53.218;6.640;2023-04-08T06:59:55;24.52;;;17.70;;
51949;SDS011;37974;53.218;6.640;2023-04-08T07:02:21;23.48;;;18.00;;
51949;SDS011;37974;53.218;6.640;2023-04-08T07:04:47;26.27;;;18.50;;
51949;SDS011;37974;53.218;6.640;2023-04-08T07:07:13;24.00;;;17.13;;
51949;SDS011;37974;53.218;6.640;2023-04-08T07:09:39;24.02;;;16.90;;
51949;SDS011;37974;53.218;6.640;2023-04-08T07:12:07;19.77;;;14.90;;
51949;SDS011;37974;53.218;6.640;2023-04-08T07:14:33;21.02;;;15.63;;
51949;SDS011;37974;53.218;6.640;2023-04-08T07:16:58;20.98;;;15.93;;
51949;SDS011;37974;53.218;6.640;2023-04-08T07:19:24;18.63;;;14.40;;
51949;SDS011;37974;53.218;6.640;2023-04-08T07:21:50;20.35;;;14.65;;
51949;SDS011;37974;53.218;6.640;2023-04-08T07:24:16;19.60;;;15.52;;
51949;SDS011;37974;53.218;6.640;2023-04-08T07:26:42;21.30;;;14.80;;
51949;SDS011;37974;53.218;6.640;2023-04-08T07:29:08;19.02;;;14.55;;
51949;SDS011;37974;53.218;6.640;2023-04-08T07:31:34;18.67;;;14.48;;
51949;SDS011;37974;53.218;6.640;2023-04-08T07:34:00;18.85;;;15.02;;
51949;SDS011;37974;53.218;6.640;2023-04-08T07:36:26;17.48;;;14.30;;
51949;SDS011;37974;53.218;6.640;2023-04-08T07:38:52;19.60;;;15.35;;
51949;SDS011;37974;53.218;6.640;2023-04-08T07:41:18;19.20;;;14.48;;
51949;SDS011;37974;53.218;6.640;2023-04-08T07:43:43;20.90;;;14.95;;
51949;SDS011;37974;53.218;6.640;2023-04-08T07:46:09;17.38;;;13.98;;
51949;SDS011;37974;53.218;6.640;2023-04-08T07:48:35;17.73;;;13.38;;
51949;SDS011;37974;53.218;6.640;2023-04-08T07:51:02;18.38;;;13.43;;
51949;SDS011;37974;53.218;6.640;2023-04-08T07:53:30;21.25;;;12.25;;
51949;SDS011;37974;53.218;6.640;2023-04-08T07:55:56;18.13;;;13.13;;
51949;SDS011;37974;53.218;6.640;2023-04-08T07:58:22;17.27;;;13.02;;
51949;SDS011;37974;53.218;6.640;2023-04-08T08:00:48;15.43;;;13.18;;
51949;SDS011;37974;53.218;6.640;2023-04-08T08:03:14;19.92;;;14.25;;
51949;SDS011;37974;53.218;6.640;2023-04-08T08:05:41;18.48;;;14.02;;
51949;SDS011;37974;53.218;6.640;2023-04-08T08:08:07;19.30;;;14.50;;
51949;SDS011;37974;53.218;6.640;2023-04-08T08:10:35;21.02;;;15.25;;
51949;SDS011;37974;53.218;6.640;2023-04-08T08:13:02;22.00;;;15.82;;
51949;SDS011;37974;53.218;6.640;2023-04-08T08:15:29;19.80;;;15.63;;
51949;SDS011;37974;53.218;6.640;2023-04-08T08:17:55;23.48;;;16.67;;
51949;SDS011;37974;53.218;6.640;2023-04-08T08:20:21;23.50;;;17.65;;
51949;SDS011;37974;53.218;6.640;2023-04-08T08:22:47;28.23;;;17.55;;
51949;SDS011;37974;53.218;6.640;2023-04-08T08:25:12;26.15;;;18.58;;
51949;SDS011;37974;53.218;6.640;2023-04-08T08:27:38;26.33;;;19.55;;
51949;SDS011;37974;53.218;6.640;2023-04-08T08:30:06;28.50;;;21.17;;
51949;SDS011;37974;53.218;6.640;2023-04-08T08:32:33;29.65;;;20.95;;
51949;SDS011;37974;53.218;6.640;2023-04-08T08:34:59;26.25;;;19.52;;
51949;SDS011;37974;53.218;6.640;2023-04-08T08:37:25;23.75;;;17.48;;
51949;SDS011;37974;53.218;6.640;2023-04-08T08:39:51;24.95;;;17.85;;
51949;SDS011;37974;53.218;6.640;2023-04-08T08:42:17;24.05;;;17.13;;
51949;SDS011;37974;53.218;6.640;2023-04-08T08:44:44;20.38;;;15.85;;
51949;SDS011;37974;53.218;6.640;2023-04-08T08:47:10;22.63;;;16.02;;
51949;SDS011;37974;53.218;6.640;2023-04-08T08:49:36;23.85;;;17.65;;
51949;SDS011;37974;53.218;6.640;2023-04-08T08:52:01;22.20;;;17.55;;
51949;SDS011;37974;53.218;6.640;2023-04-08T08:54:27;23.70;;;17.10;;
51949;SDS011;37974;53.218;6.640;2023-04-08T08:56:53;23.88;;;16.88;;
51949;SDS011;37974;53.218;6.640;2023-04-08T08:59:18;20.98;;;15.55;;
51949;SDS011;37974;53.218;6.640;2023-04-08T09:01:44;20.83;;;15.50;;
51949;SDS011;37974;53.218;6.640;2023-04-08T09:04:11;19.65;;;14.95;;
51949;SDS011;37974;53.218;6.640;2023-04-08T09:06:41;22.92;;;15.55;;
51949;SDS011;37974;53.218;6.640;2023-04-08T09:09:07;21.10;;;15.13;;
51949;SDS011;37974;53.218;6.640;2023-04-08T09:11:35;18.80;;;14.65;;
51949;SDS011;37974;53.218;6.640;2023-04-08T09:14:20;18.67;;;13.63;;
51949;SDS011;37974;53.218;6.640;2023-04-08T09:16:47;17.13;;;12.93;;
51949;SDS011;37974;53.218;6.640;2023-04-08T09:19:14;19.38;;;13.00;;
51949;SDS011;37974;53.218;6.640;2023-04-08T09:21:40;20.13;;;13.35;;
51949;SDS011;37974;53.218;6.640;2023-04-08T09:24:06;19.15;;;12.68;;
51949;SDS011;37974;53.218;6.640;2023-04-08T09:26:33;16.80;;;11.43;;
51949;SDS011;37974;53.218;6.640;2023-04-08T09:29:05;18.73;;;11.93;;
51949;SDS011;37974;53.218;6.640;2023-04-08T09:31:32;18.85;;;12.07;;
51949;SDS011;37974;53.218;6.640;2023-04-08T09:34:08;17.55;;;11.48;;
51949;SDS011;37974;53.218;6.640;2023-04-08T09:36:36;15.77;;;12.13;;
51949;SDS011;37974;53.218;6.640;2023-04-08T09:39:02;16.40;;;11.38;;
51949;SDS011;37974;53.218;6.640;2023-04-08T09:41:27;16.02;;;11.38;;
51949;SDS011;37974;53.218;6.640;2023-04-08T09:43:56;16.70;;;11.18;;
51949;SDS011;37974;53.218;6.640;2023-04-08T09:46:26;17.42;;;11.02;;
51949;SDS011;37974;53.218;6.640;2023-04-08T09:49:00;15.90;;;11.40;;
51949;SDS011;37974;53.218;6.640;2023-04-08T09:51:32;15.80;;;11.10;;
51949;SDS011;37974;53.218;6.640;2023-04-08T09:54:02;17.30;;;11.10;;
51949;SDS011;37974;53.218;6.640;2023-04-08T09:56:40;15.57;;;10.75;;
51949;SDS011;37974;53.218;6.640;2023-04-08T09:59:10;15.85;;;11.65;;
51949;SDS011;37974;53.218;6.640;2023-04-08T10:01:39;19.65;;;12.30;;
51949;SDS011;37974;53.218;6.640;2023-04-08T10:04:13;19.70;;;13.88;;
51949;SDS011;37974;53.218;6.640;2023-04-08T10:06:41;19.77;;;13.55;;
51949;SDS011;37974;53.218;6.640;2023-04-08T10:09:07;21.13;;;13.75;;
51949;SDS011;37974;53.218;6.640;2023-04-08T10:11:34;25.65;;;15.43;;
51949;SDS011;37974;53.218;6.640;2023-04-08T10:14:00;23.55;;;15.25;;
51949;SDS011;37974;53.218;6.640;2023-04-08T10:16:27;20.63;;;15.93;;
51949;SDS011;37974;53.218;6.640;2023-04-08T10:18:54;21.77;;;16.45;;
51949;SDS011;37974;53.218;6.640;2023-04-08T10:21:30;25.02;;;15.45;;
51949;SDS011;37974;53.218;6.640;2023-04-08T10:23:57;22.83;;;15.23;;
51949;SDS011;37974;53.218;6.640;2023-04-08T10:26:29;22.75;;;16.13;;
51949;SDS011;37974;53.218;6.640;2023-04-08T10:29:28;22.70;;;15.93;;
51949;SDS011;37974;53.218;6.640;2023-04-08T10:31:48;23.20;;;16.63;;
51949;SDS011;37974;53.218;6.640;2023-04-08T10:34:15;21.35;;;15.45;;
51949;SDS011;37974;53.218;6.640;2023-04-08T10:36:42;23.30;;;15.90;;
51949;SDS011;37974;53.218;6.640;2023-04-08T10:39:09;23.83;;;15.60;;
51949;SDS011;37974;53.218;6.640;2023-04-08T10:41:41;26.38;;;16.67;;
51949;SDS011;37974;53.218;6.640;2023-04-08T10:44:15;25.45;;;17.20;;
51949;SDS011;37974;53.218;6.640;2023-04-08T10:46:42;23.63;;;16.65;;
51949;SDS011;37974;53.218;6.640;2023-04-08T10:49:08;24.17;;;16.10;;
51949;SDS011;37974;53.218;6.640;2023-04-08T10:51:33;23.95;;;15.30;;
51949;SDS011;37974;53.218;6.640;2023-04-08T10:54:06;27.33;;;16.90;;
51949;SDS011;37974;53.218;6.640;2023-04-08T10:56:33;25.38;;;15.65;;
51949;SDS011;37974;53.218;6.640;2023-04-08T10:59:00;20.50;;;14.60;;
51949;SDS011;37974;53.218;6.640;2023-04-08T11:01:26;21.40;;;14.35;;
51949;SDS011;37974;53.218;6.640;2023-04-08T11:03:52;30.27;;;17.02;;
51949;SDS011;37974;53.218;6.640;2023-04-08T11:06:18;23.98;;;16.70;;
51949;SDS011;37974;53.218;6.640;2023-04-08T11:08:43;23.67;;;16.70;;
51949;SDS011;37974;53.218;6.640;2023-04-08T11:11:09;25.98;;;18.05;;
51949;SDS011;37974;53.218;6.640;2023-04-08T11:13:39;33.13;;;18.08;;
51949;SDS011;37974;53.218;6.640;2023-04-08T11:16:06;31.25;;;19.42;;
51949;SDS011;37974;53.218;6.640;2023-04-08T11:18:34;31.10;;;19.30;;
51949;SDS011;37974;53.218;6.640;2023-04-08T11:21:02;36.90;;;19.83;;
51949;SDS011;37974;53.218;6.640;2023-04-08T11:23:32;37.25;;;19.48;;
51949;SDS011;37974;53.218;6.640;2023-04-08T11:25:58;29.35;;;19.35;;
51949;SDS011;37974;53.218;6.640;2023-04-08T11:28:24;28.50;;;16.63;;
51949;SDS011;37974;53.218;6.640;2023-04-08T11:30:50;26.52;;;16.77;;
51949;SDS011;37974;53.218;6.640;2023-04-08T11:33:17;28.17;;;18.02;;
51949;SDS011;37974;53.218;6.640;2023-04-08T11:35:43;24.70;;;16.25;;
51949;SDS011;37974;53.218;6.640;2023-04-08T11:38:09;27.92;;;15.88;;
51949;SDS011;37974;53.218;6.640;2023-04-08T11:40:35;25.45;;;15.82;;
51949;SDS011;37974;53.218;6.640;2023-04-08T11:43:09;24.73;;;16.00;;
51949;SDS011;37974;53.218;6.640;2023-04-08T11:45:37;30.35;;;17.02;;
51949;SDS011;37974;53.218;6.640;2023-04-08T11:48:08;34.33;;;16.58;;
51949;SDS011;37974;53.218;6.640;2023-04-08T11:50:35;27.33;;;16.50;;
51949;SDS011;37974;53.218;6.640;2023-04-08T11:53:01;26.48;;;17.02;;
51949;SDS011;37974;53.218;6.640;2023-04-08T11:55:28;26.27;;;17.80;;
51949;SDS011;37974;53.218;6.640;2023-04-08T11:57:56;27.15;;;18.27;;
51949;SDS011;37974;53.218;6.640;2023-04-08T12:00:25;26.20;;;17.05;;
51949;SDS011;37974;53.218;6.640;2023-04-08T12:02:52;25.25;;;17.02;;
51949;SDS011;37974;53.218;6.640;2023-04-08T12:05:17;29.85;;;17.75;;
51949;SDS011;37974;53.218;6.640;2023-04-08T12:07:43;28.90;;;18.15;;
51949;SDS011;37974;53.218;6.640;2023-04-08T12:10:10;24.38;;;16.85;;
51949;SDS011;37974;53.218;6.640;2023-04-08T12:12:36;25.15;;;16.42;;
51949;SDS011;37974;53.218;6.640;2023-04-08T12:15:02;24.98;;;17.38;;
51949;SDS011;37974;53.218;6.640;2023-04-08T12:17:29;25.13;;;16.85;;
51949;SDS011;37974;53.218;6.640;2023-04-08T12:19:54;28.38;;;17.98;;
51949;SDS011;37974;53.218;6.640;2023-04-08T12:22:21;26.55;;;18.42;;
51949;SDS011;37974;53.218;6.640;2023-04-08T12:24:47;29.08;;;17.75;;
51949;SDS011;37974;53.218;6.640;2023-04-08T12:27:13;27.52;;;17.83;;
51949;SDS011;37974;53.218;6.640;2023-04-08T12:29:38;23.83;;;16.30;;
51949;SDS011;37974;53.218;6.640;2023-04-08T12:32:04;23.35;;;16.88;;
51949;SDS011;37974;53.218;6.640;2023-04-08T12:34:30;20.77;;;16.38;;
51949;SDS011;37974;53.218;6.640;2023-04-08T12:36:57;21.33;;;15.63;;
51949;SDS011;37974;53.218;6.640;2023-04-08T12:39:23;25.42;;;15.32;;
51949;SDS011;37974;53.218;6.640;2023-04-08T12:41:49;20.52;;;15.43;;
51949;SDS011;37974;53.218;6.640;2023-04-08T12:44:15;19.48;;;14.68;;
51949;SDS011;37974;53.218;6.640;2023-04-08T12:46:41;21.50;;;15.25;;
51949;SDS011;37974;53.218;6.640;2023-04-08T12:49:06;23.83;;;15.38;;
51949;SDS011;37974;53.218;6.640;2023-04-08T12:51:33;20.27;;;14.32;;
51949;SDS011;37974;53.218;6.640;2023-04-08T12:54:00;18.98;;;13.90;;
51949;SDS011;37974;53.218;6.640;2023-04-08T12:56:27;18.80;;;14.85;;
51949;SDS011;37974;53.218;6.640;2023-04-08T12:58:53;18.27;;;13.82;;
51949;SDS011;37974;53.218;6.640;2023-04-08T13:01:21;17.65;;;13.18;;
51949;SDS011;37974;53.218;6.640;2023-04-08T13:03:47;20.30;;;13.13;;
51949;SDS011;37974;53.218;6.640;2023-04-08T13:06:13;19.40;;;13.02;;
51949;SDS011;37974;53.218;6.640;2023-04-08T13:08:39;14.98;;;12.02;;
51949;SDS011;37974;53.218;6.640;2023-04-08T13:11:06;14.13;;;11.65;;
51949;SDS011;37974;53.218;6.640;2023-04-08T13:13:32;17.45;;;13.13;;
51949;SDS011;37974;53.218;6.640;2023-04-08T13:15:58;16.75;;;13.25;;
51949;SDS011;37974;53.218;6.640;2023-04-08T13:18:23;15.55;;;12.05;;
51949;SDS011;37974;53.218;6.640;2023-04-08T13:20:50;20.15;;;13.80;;
51949;SDS011;37974;53.218;6.640;2023-04-08T13:23:16;17.73;;;13.30;;
51949;SDS011;37974;53.218;6.640;2023-04-08T13:25:42;17.63;;;13.90;;
51949;SDS011;37974;53.218;6.640;2023-04-08T13:28:09;18.55;;;14.55;;
51949;SDS011;37974;53.218;6.640;2023-04-08T13:30:35;20.55;;;14.43;;
51949;SDS011;37974;53.218;6.640;2023-04-08T13:33:01;20.23;;;14.15;;
51949;SDS011;37974;53.218;6.640;2023-04-08T13:35:27;19.30;;;13.23;;
51949;SDS011;37974;53.218;6.640;2023-04-08T13:37:53;17.73;;;12.65;;
51949;SDS011;37974;53.218;6.640;2023-04-08T13:40:19;17.73;;;13.27;;
51949;SDS011;37974;53.218;6.640;2023-04-08T13:42:45;18.10;;;13.40;;
51949;SDS011;37974;53.218;6.640;2023-04-08T13:45:11;20.67;;;14.27;;
51949;SDS011;37974;53.218;6.640;2023-04-08T13:47:37;16.67;;;14.05;;
51949;SDS011;37974;53.218;6.640;2023-04-08T13:50:03;19.17;;;13.35;;
51949;SDS011;37974;53.218;6.640;2023-04-08T13:52:30;19.10;;;13.80;;
51949;SDS011;37974;53.218;6.640;2023-04-08T13:54:56;20.13;;;14.57;;
51949;SDS011;37974;53.218;6.640;2023-04-08T13:57:22;19.38;;;14.30;;
51949;SDS011;37974;53.218;6.640;2023-04-08T13:59:47;14.95;;;13.23;;
51949;SDS011;37974;53.218;6.640;2023-04-08T14:02:13;19.27;;;14.95;;
51949;SDS011;37974;53.218;6.640;2023-04-08T14:04:39;16.25;;;13.48;;
51949;SDS011;37974;53.218;6.640;2023-04-08T14:07:04;18.35;;;13.77;;
51949;SDS011;37974;53.218;6.640;2023-04-08T14:09:30;20.17;;;14.25;;
51949;SDS011;37974;53.218;6.640;2023-04-08T14:11:56;19.73;;;14.13;;
51949;SDS011;37974;53.218;6.640;2023-04-08T14:14:23;20.45;;;14.88;;
51949;SDS011;37974;53.218;6.640;2023-04-08T14:16:48;21.33;;;13.98;;
51949;SDS011;37974;53.218;6.640;2023-04-08T14:19:14;17.98;;;14.45;;
51949;SDS011;37974;53.218;6.640;2023-04-08T14:21:41;19.85;;;13.68;;